Time;durP1;ratioP1;P1;durP2;ratioP2;P2;SDS_P1;SDS_P2;PMS_P1;PMS_P2;Temp;Humidity;BMP_temperature;BMP_pressure;BME280_temperature;BME280_humidity;BME280_pressure;Samples;Min_cycle;Max_cycle;Signal;HPM_P1;HPM_P2
2023/09/09 00:00:50;;;;;;;0.20;0.20;;;20.40;99.90;;;;;;5028712;28;20504;-80
2023/09/09 00:03:16;;;;;;;0.20;0.20;;;20.40;99.90;;;;;;5025188;28;20057;-80
2023/09/09 00:05:41;;;;;;;0.20;0.20;;;20.30;99.90;;;;;;5029773;28;20052;-79
2023/09/09 00:08:07;;;;;;;0.20;0.20;;;20.30;99.90;;;;;;5025628;28;20042;-80
2023/09/09 00:10:38;;;;;;;0.20;0.20;;;20.30;99.90;;;;;;5030223;28;20123;-80
2023/09/09 00:13:05;;;;;;;0.20;0.20;;;20.20;99.90;;;;;;5029853;28;20493;-80
2023/09/09 00:15:31;;;;;;;0.20;0.20;;;20.30;99.90;;;;;;5029078;28;20314;-80
2023/09/09 00:17:59;;;;;;;0.20;0.20;;;20.20;99.90;;;;;;5029480;28;20389;-79
2023/09/09 00:20:36;;;;;;;0.20;0.20;;;20.30;99.90;;;;;;5028916;28;20029;-79
2023/09/09 00:23:08;;;;;;;0.20;0.20;;;20.20;99.90;;;;;;5029709;28;20119;-79
2023/09/09 00:25:35;;;;;;;0.13;0.13;;;20.20;99.90;;;;;;5030346;28;20409;-79
2023/09/09 00:28:01;;;;;;;0.20;0.20;;;20.30;99.90;;;;;;5028012;28;20037;-79
2023/09/09 00:30:27;;;;;;;0.20;0.20;;;20.20;99.90;;;;;;5029594;28;20507;-79
2023/09/09 00:32:53;;;;;;;0.20;0.20;;;20.20;99.90;;;;;;5028868;28;20128;-79
2023/09/09 00:35:18;;;;;;;0.20;0.20;;;20.20;99.90;;;;;;5027512;28;20556;-79
2023/09/09 00:37:44;;;;;;;0.20;0.20;;;20.20;99.90;;;;;;5027810;28;20116;-79
2023/09/09 00:40:11;;;;;;;0.10;0.10;;;20.20;99.90;;;;;;5022868;28;20104;-78
2023/09/09 00:42:37;;;;;;;0.20;0.20;;;20.20;99.90;;;;;;5026659;28;20038;-79
2023/09/09 00:45:03;;;;;;;0.20;0.20;;;20.20;99.90;;;;;;5028317;28;20041;-79
2023/09/09 00:47:29;;;;;;;0.10;0.10;;;20.10;99.90;;;;;;5024630;28;20044;-79
2023/09/09 00:49:55;;;;;;;0.20;0.20;;;20.10;99.90;;;;;;5018813;28;20409;-79
2023/09/09 00:52:21;;;;;;;0.20;0.20;;;20.10;99.90;;;;;;5021239;28;20042;-78
2023/09/09 00:54:48;;;;;;;0.20;0.20;;;20.10;99.90;;;;;;5023193;28;20613;-78
2023/09/09 00:57:16;;;;;;;0.20;0.20;;;20.10;99.90;;;;;;5022632;28;20117;-79
2023/09/09 00:59:41;;;;;;;0.20;0.20;;;20.10;99.90;;;;;;5026652;28;20436;-79
2023/09/09 01:02:07;;;;;;;0.20;0.20;;;20.10;99.90;;;;;;5017297;28;20042;-79
2023/09/09 01:04:33;;;;;;;0.20;0.20;;;20.10;99.90;;;;;;5016902;28;20509;-79
2023/09/09 01:07:03;;;;;;;0.20;0.20;;;20.10;99.90;;;;;;5027084;28;20084;-78
2023/09/09 01:09:33;;;;;;;0.20;0.20;;;20.10;99.90;;;;;;5027746;28;20497;-79
2023/09/09 01:12:00;;;;;;;0.30;0.30;;;20.00;99.90;;;;;;5027803;28;20088;-79
2023/09/09 01:14:26;;;;;;;0.20;0.20;;;20.10;99.90;;;;;;5028980;28;20128;-79
2023/09/09 01:16:53;;;;;;;0.20;0.20;;;20.10;99.90;;;;;;5025956;28;20740;-79
2023/09/09 01:19:21;;;;;;;0.20;0.20;;;20.10;99.90;;;;;;5027623;28;20132;-78
2023/09/09 01:21:47;;;;;;;0.20;0.20;;;20.00;99.90;;;;;;5027444;28;20132;-79
2023/09/09 01:24:16;;;;;;;0.20;0.20;;;20.10;99.90;;;;;;5028794;28;20041;-79
2023/09/09 01:26:46;;;;;;;0.20;0.20;;;20.10;99.90;;;;;;5027909;28;20049;-79
2023/09/09 01:29:12;;;;;;;0.20;0.20;;;20.00;99.90;;;;;;5027855;28;20079;-78
2023/09/09 01:31:38;;;;;;;0.20;0.20;;;20.00;99.90;;;;;;5027349;28;20045;-78
2023/09/09 01:34:04;;;;;;;0.20;0.20;;;20.00;99.90;;;;;;5028714;28;20043;-79
2023/09/09 01:36:30;;;;;;;0.10;0.10;;;20.00;99.90;;;;;;5028139;28;20079;-79
2023/09/09 01:38:56;;;;;;;0.20;0.20;;;20.00;99.90;;;;;;5019046;28;20068;-79
2023/09/09 01:41:22;;;;;;;0.20;0.20;;;19.90;99.90;;;;;;5019863;28;20055;-79
2023/09/09 01:43:48;;;;;;;0.20;0.20;;;19.90;99.90;;;;;;5027546;28;20056;-79
2023/09/09 01:46:13;;;;;;;0.20;0.20;;;19.90;99.90;;;;;;5028019;28;20369;-79
2023/09/09 01:48:39;;;;;;;0.20;0.20;;;19.90;99.90;;;;;;5027854;28;20059;-79
2023/09/09 01:51:06;;;;;;;0.20;0.20;;;19.80;99.90;;;;;;5027092;28;20473;-79
2023/09/09 01:53:32;;;;;;;0.20;0.20;;;19.80;99.90;;;;;;5019762;28;20045;-78
2023/09/09 01:56:00;;;;;;;0.17;0.17;;;19.80;99.90;;;;;;5028253;28;20048;-78
2023/09/09 01:58:25;;;;;;;0.20;0.20;;;19.80;99.90;;;;;;5027559;28;20117;-79
2023/09/09 02:00:51;;;;;;;0.20;0.20;;;19.80;99.90;;;;;;5026435;28;20046;-78
2023/09/09 02:03:17;;;;;;;0.20;0.20;;;19.80;99.90;;;;;;5023897;28;20061;-79
2023/09/09 02:05:43;;;;;;;0.20;0.20;;;19.80;99.90;;;;;;5012809;28;20596;-78
2023/09/09 02:08:09;;;;;;;0.20;0.20;;;19.70;99.90;;;;;;5020322;28;20049;-78
2023/09/09 02:10:34;;;;;;;0.20;0.20;;;19.70;99.90;;;;;;5024015;28;20053;-78
2023/09/09 02:13:00;;;;;;;0.10;0.10;;;19.70;99.90;;;;;;5025608;28;20040;-78
2023/09/09 02:15:25;;;;;;;0.20;0.20;;;19.70;99.90;;;;;;5029296;28;20170;-79
2023/09/09 02:17:51;;;;;;;0.20;0.20;;;19.70;99.90;;;;;;5029606;28;20045;-79
2023/09/09 02:20:17;;;;;;;0.20;0.20;;;19.70;99.90;;;;;;5030559;28;20103;-79
2023/09/09 02:22:42;;;;;;;0.20;0.20;;;19.60;99.90;;;;;;5032132;28;20402;-79
2023/09/09 02:25:08;;;;;;;0.20;0.20;;;19.60;99.90;;;;;;5032168;28;20034;-78
2023/09/09 02:27:35;;;;;;;0.20;0.20;;;19.60;99.90;;;;;;5031882;28;20037;-79
2023/09/09 02:30:04;;;;;;;0.20;0.20;;;19.60;99.90;;;;;;5031665;28;20041;-79
2023/09/09 02:32:30;;;;;;;0.20;0.20;;;19.60;99.90;;;;;;5028646;28;20049;-79
2023/09/09 02:34:57;;;;;;;0.10;0.10;;;19.60;99.90;;;;;;5030541;28;20042;-79
2023/09/09 02:37:24;;;;;;;0.10;0.10;;;19.60;99.90;;;;;;5026851;28;20124;-79
2023/09/09 02:39:50;;;;;;;0.20;0.20;;;19.60;99.90;;;;;;5016462;28;20072;-78
2023/09/09 02:42:21;;;;;;;0.20;0.20;;;19.60;99.90;;;;;;5029419;28;20452;-78
2023/09/09 02:44:49;;;;;;;0.20;0.20;;;19.60;99.90;;;;;;5031713;28;20079;-78
2023/09/09 02:47:16;;;;;;;0.17;0.17;;;19.60;99.90;;;;;;5030792;28;20045;-78
2023/09/09 02:49:43;;;;;;;0.20;0.20;;;19.60;99.90;;;;;;5033349;28;20049;-78
2023/09/09 02:52:09;;;;;;;0.20;0.20;;;19.60;99.90;;;;;;5030568;28;20103;-78
2023/09/09 02:54:35;;;;;;;0.20;0.20;;;19.50;99.90;;;;;;5032635;28;20046;-79
2023/09/09 02:57:03;;;;;;;0.20;0.20;;;19.50;99.90;;;;;;5029137;28;20457;-78
2023/09/09 02:59:31;;;;;;;0.10;0.10;;;19.60;99.90;;;;;;5012123;28;20728;-78
2023/09/09 03:01:57;;;;;;;0.20;0.20;;;19.50;99.90;;;;;;5026641;28;20432;-78
2023/09/09 03:04:22;;;;;;;0.20;0.20;;;19.50;99.90;;;;;;5027676;28;20049;-79
2023/09/09 03:06:48;;;;;;;0.20;0.20;;;19.50;99.90;;;;;;5025840;28;20040;-78
2023/09/09 03:09:14;;;;;;;0.20;0.20;;;19.50;99.90;;;;;;5030617;28;20038;-78
2023/09/09 03:11:39;;;;;;;0.15;0.15;;;19.40;99.90;;;;;;5027872;28;20042;-78
2023/09/09 03:14:05;;;;;;;0.10;0.10;;;19.40;99.90;;;;;;5018312;28;20049;-78
2023/09/09 03:16:31;;;;;;;0.20;0.20;;;19.40;99.90;;;;;;5029687;28;20504;-78
2023/09/09 03:18:56;;;;;;;0.20;0.20;;;19.40;99.90;;;;;;5027904;28;20566;-78
2023/09/09 03:21:22;;;;;;;0.10;0.10;;;19.40;99.90;;;;;;5019035;28;20094;-79
2023/09/09 03:23:48;;;;;;;0.20;0.20;;;19.40;99.90;;;;;;5029911;28;20425;-78
2023/09/09 03:26:19;;;;;;;0.20;0.20;;;19.40;99.90;;;;;;5031200;28;20050;-78
2023/09/09 03:28:45;;;;;;;0.20;0.20;;;19.40;99.90;;;;;;5032181;28;20049;-79
2023/09/09 03:31:11;;;;;;;0.20;0.20;;;19.40;99.90;;;;;;5029272;28;20041;-78
2023/09/09 03:33:37;;;;;;;0.20;0.20;;;19.40;99.90;;;;;;5030019;28;20049;-78
2023/09/09 03:36:03;;;;;;;0.20;0.20;;;19.40;99.90;;;;;;5028850;28;20038;-79
2023/09/09 03:38:29;;;;;;;0.10;0.10;;;19.40;99.90;;;;;;5027269;28;20049;-78
2023/09/09 03:40:54;;;;;;;0.20;0.20;;;19.40;99.90;;;;;;5029828;28;20103;-79
2023/09/09 03:43:20;;;;;;;0.20;0.20;;;19.30;99.90;;;;;;5029837;28;20422;-78
2023/09/09 03:45:46;;;;;;;0.20;0.20;;;19.40;99.90;;;;;;5027490;28;20095;-78
2023/09/09 03:48:11;;;;;;;0.20;0.20;;;19.40;99.90;;;;;;5028425;28;20072;-78
2023/09/09 03:50:37;;;;;;;0.20;0.20;;;19.40;99.90;;;;;;5031011;28;20065;-78
2023/09/09 03:53:03;;;;;;;0.20;0.20;;;19.40;99.90;;;;;;5027023;28;20132;-79
2023/09/09 03:55:28;;;;;;;0.20;0.20;;;19.40;99.90;;;;;;5030973;28;20103;-78
2023/09/09 03:57:54;;;;;;;0.10;0.10;;;19.40;99.90;;;;;;5021650;28;20133;-78
2023/09/09 04:00:20;;;;;;;0.20;0.20;;;19.30;99.90;;;;;;5028777;28;20040;-78
2023/09/09 04:02:46;;;;;;;0.20;0.20;;;19.30;99.90;;;;;;5029340;28;20057;-78
2023/09/09 04:05:12;;;;;;;0.20;0.20;;;19.40;99.90;;;;;;5029475;28;20084;-78
2023/09/09 04:07:40;;;;;;;0.20;0.20;;;19.30;99.90;;;;;;5020037;28;20041;-78
2023/09/09 04:10:06;;;;;;;0.20;0.20;;;19.30;99.90;;;;;;5010779;28;20057;-78
2023/09/09 04:12:32;;;;;;;0.20;0.20;;;19.40;99.90;;;;;;5029032;28;20041;-78
2023/09/09 04:14:58;;;;;;;0.20;0.20;;;19.30;99.90;;;;;;5028366;28;20034;-78
2023/09/09 04:17:23;;;;;;;0.20;0.20;;;19.30;99.90;;;;;;5029162;28;20045;-78
2023/09/09 04:19:49;;;;;;;0.20;0.20;;;19.30;99.90;;;;;;5029427;28;20156;-79
2023/09/09 04:22:14;;;;;;;0.20;0.20;;;19.30;99.90;;;;;;5026063;28;20536;-78
2023/09/09 04:24:40;;;;;;;0.20;0.20;;;19.30;99.90;;;;;;5023105;28;20041;-78
2023/09/09 04:27:06;;;;;;;0.20;0.20;;;19.20;99.90;;;;;;5013593;28;20049;-77
2023/09/09 04:29:31;;;;;;;0.20;0.20;;;19.30;99.90;;;;;;5024498;28;20045;-78
2023/09/09 04:31:58;;;;;;;0.20;0.20;;;19.20;99.90;;;;;;5028570;28;20393;-77
2023/09/09 04:34:24;;;;;;;0.20;0.20;;;19.30;99.90;;;;;;5029549;28;20034;-78
2023/09/09 04:36:50;;;;;;;0.20;0.20;;;19.20;99.90;;;;;;5024844;28;20041;-79
2023/09/09 04:39:15;;;;;;;0.20;0.20;;;19.20;99.90;;;;;;5027889;28;20140;-78
2023/09/09 04:41:44;;;;;;;0.20;0.20;;;19.30;99.90;;;;;;5029825;28;20037;-78
2023/09/09 04:44:10;;;;;;;0.20;0.20;;;19.20;99.90;;;;;;5026961;28;20057;-78
2023/09/09 04:46:36;;;;;;;0.20;0.20;;;19.20;99.90;;;;;;5026376;28;20038;-78
2023/09/09 04:49:03;;;;;;;0.20;0.20;;;19.20;99.90;;;;;;5028982;28;20033;-79
2023/09/09 04:51:32;;;;;;;0.20;0.20;;;19.20;99.90;;;;;;5029082;28;20045;-78
2023/09/09 04:53:57;;;;;;;0.20;0.20;;;19.20;99.90;;;;;;5028142;28;20042;-78
2023/09/09 04:56:23;;;;;;;0.20;0.20;;;19.20;99.90;;;;;;5028556;28;20512;-79
2023/09/09 04:58:49;;;;;;;0.17;0.17;;;19.20;99.90;;;;;;5029290;28;20485;-79
2023/09/09 05:01:15;;;;;;;0.20;0.20;;;19.20;99.90;;;;;;5018922;28;20060;-79
2023/09/09 05:03:41;;;;;;;0.20;0.20;;;19.20;99.90;;;;;;5025739;28;20300;-79
2023/09/09 05:06:07;;;;;;;0.20;0.20;;;19.20;99.90;;;;;;5019458;28;20076;-78
2023/09/09 05:08:32;;;;;;;0.20;0.20;;;19.20;99.90;;;;;;5027936;28;20045;-79
2023/09/09 05:10:58;;;;;;;0.20;0.20;;;19.20;99.90;;;;;;5027237;28;20558;-79
2023/09/09 05:13:24;;;;;;;0.20;0.20;;;19.20;99.90;;;;;;5019207;28;20628;-79
2023/09/09 05:15:51;;;;;;;0.20;0.20;;;19.20;99.90;;;;;;5026693;28;20128;-79
2023/09/09 05:18:16;;;;;;;0.20;0.20;;;19.20;99.90;;;;;;5025809;28;20060;-79
2023/09/09 05:20:46;;;;;;;0.22;0.22;;;19.20;99.90;;;;;;5037766;28;20041;-78
2023/09/09 05:23:12;;;;;;;0.20;0.20;;;19.20;99.90;;;;;;5025743;28;20104;-79
2023/09/09 05:25:38;;;;;;;0.20;0.20;;;19.20;99.90;;;;;;5029789;28;20645;-79
2023/09/09 05:28:04;;;;;;;0.20;0.20;;;19.20;99.90;;;;;;5029389;28;20046;-79
2023/09/09 05:30:29;;;;;;;0.20;0.20;;;19.20;99.90;;;;;;5021724;28;20049;-79
2023/09/09 05:32:55;;;;;;;0.20;0.20;;;19.20;99.90;;;;;;5016182;28;20056;-79
2023/09/09 05:35:21;;;;;;;0.20;0.20;;;19.20;99.90;;;;;;5017627;28;20041;-79
2023/09/09 05:37:46;;;;;;;0.20;0.20;;;19.20;99.90;;;;;;5016285;28;20081;-78
2023/09/09 05:40:12;;;;;;;0.20;0.20;;;19.20;99.90;;;;;;5029176;28;20045;-79
2023/09/09 05:42:39;;;;;;;0.10;0.10;;;19.20;99.90;;;;;;5027060;28;20038;-78
2023/09/09 05:45:08;;;;;;;0.10;0.10;;;19.20;99.90;;;;;;5030047;28;20084;-78
2023/09/09 05:47:34;;;;;;;0.20;0.20;;;19.00;99.90;;;;;;5040534;28;20038;-79
2023/09/09 05:50:02;;;;;;;0.20;0.20;;;19.20;99.90;;;;;;5040134;28;20046;-78
2023/09/09 05:52:29;;;;;;;0.20;0.20;;;19.20;99.90;;;;;;5034028;28;20091;-78
2023/09/09 05:54:55;;;;;;;0.20;0.20;;;19.30;99.90;;;;;;5034788;28;20064;-79
2023/09/09 05:57:21;;;;;;;0.20;0.20;;;19.30;99.90;;;;;;5032151;28;20048;-78
2023/09/09 05:59:47;;;;;;;0.20;0.20;;;19.30;99.90;;;;;;5033880;28;20038;-78
2023/09/09 06:02:12;;;;;;;0.20;0.20;;;19.40;99.90;;;;;;5034224;28;20046;-79
2023/09/09 06:04:38;;;;;;;0.20;0.20;;;19.40;99.90;;;;;;5035047;28;20061;-78
2023/09/09 06:07:04;;;;;;;0.20;0.20;;;19.40;99.90;;;;;;5034380;28;20029;-79
2023/09/09 06:09:30;;;;;;;0.20;0.20;;;19.40;99.90;;;;;;5035095;28;20362;-79
2023/09/09 06:11:55;;;;;;;0.20;0.20;;;19.50;99.90;;;;;;5031112;28;20175;-79
2023/09/09 06:14:21;;;;;;;0.17;0.17;;;19.50;99.90;;;;;;5034023;28;20053;-80
2023/09/09 06:16:47;;;;;;;0.20;0.20;;;19.60;99.90;;;;;;5023071;28;20041;-78
2023/09/09 06:19:12;;;;;;;0.10;0.10;;;19.60;99.90;;;;;;5030710;28;20448;-81
2023/09/09 06:21:38;;;;;;;0.20;0.20;;;19.70;99.90;;;;;;5029022;28;20037;-81
2023/09/09 06:24:04;;;;;;;0.20;0.20;;;19.70;99.90;;;;;;5034017;28;20065;-80
2023/09/09 06:26:33;;;;;;;0.20;0.20;;;19.80;99.90;;;;;;5029397;28;20037;-81
2023/09/09 06:28:58;;;;;;;0.20;0.20;;;19.90;99.90;;;;;;5027848;28;20072;-82
2023/09/09 06:31:24;;;;;;;0.20;0.20;;;19.90;99.90;;;;;;5033291;28;20106;-82
2023/09/09 06:33:50;;;;;;;0.20;0.20;;;19.90;99.90;;;;;;5031084;28;20132;-82
2023/09/09 06:36:16;;;;;;;0.20;0.20;;;20.00;99.90;;;;;;5029876;28;20061;-82
2023/09/09 06:38:42;;;;;;;0.20;0.20;;;20.00;99.90;;;;;;5030142;28;20087;-82
2023/09/09 06:41:08;;;;;;;0.20;0.20;;;20.10;99.90;;;;;;5027593;28;20069;-82
2023/09/09 06:43:33;;;;;;;0.20;0.20;;;20.10;99.90;;;;;;5030356;28;20485;-82
2023/09/09 06:46:00;;;;;;;0.20;0.20;;;20.10;99.90;;;;;;5036000;28;20489;-81
2023/09/09 06:48:25;;;;;;;0.20;0.20;;;20.20;99.90;;;;;;5025481;28;20056;-82
2023/09/09 06:50:51;;;;;;;0.20;0.20;;;20.20;99.90;;;;;;5034066;28;20037;-82
2023/09/09 06:53:17;;;;;;;0.20;0.20;;;20.30;99.90;;;;;;5021745;28;20053;-81
2023/09/09 06:55:47;;;;;;;0.20;0.20;;;20.30;99.90;;;;;;5021438;28;20044;-82
2023/09/09 06:58:13;;;;;;;0.20;0.20;;;20.40;99.90;;;;;;5015161;28;20042;-82
2023/09/09 07:00:39;;;;;;;0.20;0.20;;;20.40;99.90;;;;;;5032895;28;20125;-82
2023/09/09 07:03:07;;;;;;;0.20;0.20;;;20.50;99.90;;;;;;5026490;28;20672;-82
2023/09/09 07:05:33;;;;;;;0.20;0.20;;;20.50;99.90;;;;;;5029655;28;20129;-82
2023/09/09 07:07:58;;;;;;;0.20;0.20;;;20.60;99.90;;;;;;5028725;28;20099;-82
2023/09/09 07:10:24;;;;;;;0.20;0.20;;;20.70;99.90;;;;;;5029579;28;20045;-83
2023/09/09 07:12:50;;;;;;;0.20;0.20;;;20.70;99.90;;;;;;5029759;28;20041;-83
2023/09/09 07:15:16;;;;;;;0.20;0.20;;;20.80;99.90;;;;;;5030640;28;20053;-83
2023/09/09 07:17:48;;;;;;;0.20;0.20;;;20.80;99.90;;;;;;5028590;28;20037;-82
2023/09/09 07:20:14;;;;;;;0.20;0.20;;;20.90;99.90;;;;;;5028141;28;20132;-82
2023/09/09 07:22:40;;;;;;;0.20;0.20;;;21.00;99.90;;;;;;5027762;28;20116;-82
2023/09/09 07:25:06;;;;;;;0.20;0.20;;;21.10;99.90;;;;;;5030711;28;20050;-82
2023/09/09 07:27:32;;;;;;;0.20;0.20;;;21.10;99.90;;;;;;5030680;28;20187;-82
2023/09/09 07:29:57;;;;;;;0.20;0.20;;;21.10;99.90;;;;;;5030252;28;20042;-83
2023/09/09 07:32:23;;;;;;;0.20;0.20;;;21.20;99.90;;;;;;5030709;28;20046;-82
2023/09/09 07:34:50;;;;;;;0.20;0.20;;;21.30;99.90;;;;;;5028505;28;20049;-82
2023/09/09 07:37:16;;;;;;;0.20;0.20;;;21.30;99.90;;;;;;5041334;28;20469;-82
2023/09/09 07:39:46;;;;;;;0.20;0.20;;;21.40;99.90;;;;;;5032328;28;20132;-82
2023/09/09 07:42:13;;;;;;;0.20;0.20;;;21.40;99.90;;;;;;5029820;28;20056;-82
2023/09/09 07:44:38;;;;;;;0.20;0.20;;;21.50;99.90;;;;;;5020186;28;20042;-80
2023/09/09 07:47:06;;;;;;;0.20;0.20;;;21.50;99.90;;;;;;5027522;28;20496;-82
2023/09/09 07:49:33;;;;;;;0.20;0.20;;;21.60;99.90;;;;;;5026477;28;20045;-81
2023/09/09 07:51:59;;;;;;;1.75;0.45;;;21.60;99.90;;;;;;5022982;28;20037;-82
2023/09/09 07:54:25;;;;;;;0.20;0.20;;;21.60;99.90;;;;;;5023046;28;20048;-82
2023/09/09 07:56:50;;;;;;;0.10;0.10;;;21.70;99.90;;;;;;5030140;28;20057;-82
2023/09/09 07:59:16;;;;;;;0.20;0.20;;;21.80;99.90;;;;;;5029972;28;20045;-82
2023/09/09 08:01:43;;;;;;;0.20;0.20;;;21.80;99.90;;;;;;5022552;28;20046;-82
2023/09/09 08:04:09;;;;;;;0.20;0.20;;;21.90;99.90;;;;;;5022087;28;20068;-82
2023/09/09 08:06:34;;;;;;;0.20;0.20;;;21.90;99.90;;;;;;5018149;28;20350;-81
2023/09/09 08:09:01;;;;;;;0.20;0.20;;;22.00;99.90;;;;;;5026841;28;20034;-85
2023/09/09 08:11:26;;;;;;;0.20;0.20;;;22.10;99.90;;;;;;5028373;28;20049;-85
2023/09/09 08:13:52;;;;;;;0.10;0.10;;;22.10;99.90;;;;;;5041548;28;20040;-85
2023/09/09 08:16:18;;;;;;;0.20;0.20;;;22.20;99.90;;;;;;5029482;28;20469;-84
2023/09/09 08:18:43;;;;;;;0.20;0.20;;;22.30;99.90;;;;;;5031423;28;20076;-85
2023/09/09 08:21:12;;;;;;;0.20;0.20;;;22.30;99.90;;;;;;5019204;28;20084;-85
2023/09/09 08:23:38;;;;;;;0.20;0.20;;;22.40;99.90;;;;;;5012288;28;20104;-86
2023/09/09 08:26:04;;;;;;;0.20;0.20;;;22.50;99.90;;;;;;5010376;28;20049;-85
2023/09/09 08:28:29;;;;;;;0.20;0.20;;;22.50;99.90;;;;;;5012575;28;20603;-85
2023/09/09 08:31:02;;;;;;;0.20;0.20;;;22.60;99.90;;;;;;5018427;28;20076;-77
2023/09/09 08:33:28;;;;;;;0.20;0.20;;;22.60;99.90;;;;;;5027652;28;20091;-84
2023/09/09 08:36:03;;;;;;;0.22;0.22;;;22.70;99.90;;;;;;5029687;28;20280;-84
2023/09/09 08:38:29;;;;;;;0.20;0.20;;;22.80;99.90;;;;;;5022454;28;20041;-84
2023/09/09 08:41:10;;;;;;;0.35;0.35;;;22.80;99.90;;;;;;5022729;28;20113;-85
2023/09/09 08:44:10;;;;;;;0.20;0.20;;;22.90;99.90;;;;;;5025213;28;20049;-84
2023/09/09 08:46:38;;;;;;;0.20;0.20;;;23.00;99.90;;;;;;5022863;28;20089;-84
2023/09/09 08:49:05;;;;;;;0.20;0.20;;;23.10;99.90;;;;;;5036572;28;20045;-84
2023/09/09 08:51:57;;;;;;;0.20;0.20;;;23.20;99.90;;;;;;5029901;28;20045;-83
2023/09/09 08:54:25;;;;;;;0.20;0.20;;;23.20;99.90;;;;;;5017847;28;20053;-83
2023/09/09 08:56:51;;;;;;;0.20;0.20;;;23.30;99.90;;;;;;5008869;28;20053;-82
2023/09/09 08:59:18;;;;;;;0.20;0.20;;;23.40;99.90;;;;;;5025611;28;20608;-82
2023/09/09 09:01:44;;;;;;;0.20;0.20;;;23.40;99.90;;;;;;5024565;28;20107;-81
2023/09/09 09:04:13;;;;;;;0.20;0.20;;;23.50;99.90;;;;;;5017889;28;20196;-81
2023/09/09 09:06:41;;;;;;;0.20;0.20;;;23.60;99.90;;;;;;5021095;28;20057;-81
2023/09/09 09:09:06;;;;;;;0.20;0.20;;;23.60;99.90;;;;;;5022126;28;20049;-82
2023/09/09 09:11:32;;;;;;;0.30;0.30;;;23.70;99.90;;;;;;5028331;28;20115;-81
2023/09/09 09:14:16;;;;;;;0.20;0.20;;;23.80;99.90;;;;;;5026404;28;20449;-82
2023/09/09 09:16:44;;;;;;;0.20;0.20;;;23.80;99.90;;;;;;5017308;28;20048;-81
2023/09/09 09:19:25;;;;;;;0.20;0.20;;;23.90;99.90;;;;;;5026984;28;20443;-81
2023/09/09 09:21:51;;;;;;;0.20;0.20;;;24.00;99.90;;;;;;5030211;28;20393;-81
2023/09/09 09:24:25;;;;;;;0.20;0.20;;;24.00;99.90;;;;;;5034381;28;20452;-81
2023/09/09 09:26:50;;;;;;;0.20;0.20;;;24.10;99.90;;;;;;5027656;28;20045;-81
2023/09/09 09:29:16;;;;;;;0.20;0.20;;;24.20;99.90;;;;;;5021336;28;20104;-82
2023/09/09 09:31:49;;;;;;;0.32;0.32;;;24.30;99.90;;;;;;5023888;28;20041;-81
2023/09/09 09:34:17;;;;;;;0.40;0.40;;;24.30;99.90;;;;;;5028040;28;20155;-82
2023/09/09 09:36:43;;;;;;;0.20;0.20;;;24.40;99.90;;;;;;5016161;28;20338;-82
2023/09/09 09:39:09;;;;;;;0.20;0.20;;;24.40;99.90;;;;;;5028253;28;20045;-81
2023/09/09 09:41:38;;;;;;;0.20;0.20;;;24.50;99.90;;;;;;5019072;28;20042;-82
2023/09/09 09:44:04;;;;;;;0.20;0.20;;;24.50;99.90;;;;;;5008028;28;20068;-81
2023/09/09 09:46:30;;;;;;;0.20;0.20;;;24.60;99.90;;;;;;5028327;28;20164;-81
2023/09/09 09:48:55;;;;;;;0.20;0.20;;;24.70;99.90;;;;;;5028770;28;20555;-82
2023/09/09 09:51:21;;;;;;;0.20;0.20;;;24.70;99.90;;;;;;5023638;28;20060;-84
2023/09/09 09:53:53;;;;;;;0.20;0.20;;;24.80;99.90;;;;;;5021178;28;20374;-82
2023/09/09 09:56:20;;;;;;;0.20;0.20;;;24.90;99.90;;;;;;5023776;28;20053;-81
2023/09/09 09:58:47;;;;;;;0.20;0.20;;;25.00;99.90;;;;;;5025556;28;20045;-81
2023/09/09 10:01:14;;;;;;;0.20;0.20;;;25.10;99.90;;;;;;5027345;28;20052;-81
2023/09/09 10:03:49;;;;;;;0.30;0.30;;;25.20;99.90;;;;;;5029722;28;20184;-81
2023/09/09 10:06:27;;;;;;;0.20;0.20;;;25.20;99.90;;;;;;5029201;28;20041;-81
2023/09/09 10:09:19;;;;;;;0.20;0.20;;;25.30;99.90;;;;;;5029354;28;20046;-82
2023/09/09 10:12:15;;;;;;;0.20;0.20;;;25.40;99.90;;;;;;5027148;28;20438;-81
2023/09/09 10:14:41;;;;;;;0.30;0.30;;;25.40;99.90;;;;;;5024340;28;20046;-82
2023/09/09 10:17:08;;;;;;;0.20;0.20;;;25.60;99.90;;;;;;5025434;28;20049;-81
2023/09/09 10:19:38;;;;;;;0.20;0.20;;;25.60;99.90;;;;;;5027916;28;20056;-81
2023/09/09 10:22:07;;;;;;;0.20;0.20;;;25.70;99.90;;;;;;5028213;28;20048;-81
2023/09/09 10:24:38;;;;;;;0.20;0.20;;;25.80;99.90;;;;;;5028329;28;20095;-81
2023/09/09 10:27:04;;;;;;;;;;;25.90;99.90;;;;;;5027630;28;20452;-81
2023/09/09 10:29:31;;;;;;;0.32;0.32;;;26.00;99.90;;;;;;5024935;28;19971;-81
2023/09/09 10:32:07;;;;;;;0.20;0.20;;;26.10;99.90;;;;;;5012603;28;20077;-81
2023/09/09 10:34:37;;;;;;;0.20;0.20;;;26.20;99.90;;;;;;5017258;28;20576;-81
2023/09/09 10:37:03;;;;;;;0.20;0.20;;;26.20;99.90;;;;;;5029979;28;20045;-81
2023/09/09 10:39:31;;;;;;;0.50;0.50;;;26.30;99.90;;;;;;5031045;28;20044;-81
2023/09/09 10:41:57;;;;;;;0.20;0.20;;;26.40;99.90;;;;;;5018552;28;20476;-81
2023/09/09 10:44:23;;;;;;;0.20;0.20;;;26.50;99.90;;;;;;5026658;28;20041;-81
2023/09/09 10:46:56;;;;;;;0.20;0.20;;;26.60;99.90;;;;;;5029665;28;20438;-81
2023/09/09 10:49:30;;;;;;;0.20;0.20;;;26.70;99.90;;;;;;5033386;28;20045;-82
2023/09/09 10:51:56;;;;;;;0.20;0.20;;;26.80;99.90;;;;;;5031348;28;20040;-81
2023/09/09 10:54:24;;;;;;;0.20;0.20;;;26.80;99.90;;;;;;5016499;28;20572;-80
2023/09/09 10:56:52;;;;;;;0.20;0.20;;;26.90;99.90;;;;;;5010808;28;20053;-81
2023/09/09 10:59:23;;;;;;;0.43;0.43;;;27.00;99.90;;;;;;5023842;28;20072;-81
2023/09/09 11:02:28;;;;;;;0.20;0.20;;;27.10;99.90;;;;;;5028321;28;20037;-81
2023/09/09 11:05:10;;;;;;;0.20;0.20;;;27.10;99.90;;;;;;5026467;28;20564;-81
2023/09/09 11:07:40;;;;;;;0.20;0.20;;;27.20;99.90;;;;;;5030954;28;20564;-81
2023/09/09 11:10:07;;;;;;;0.28;0.28;;;27.30;99.90;;;;;;5025481;28;20088;-81
2023/09/09 11:12:33;;;;;;;0.20;0.20;;;27.30;99.90;;;;;;5027319;28;20042;-80
2023/09/09 11:15:09;;;;;;;0.30;0.30;;;27.40;99.90;;;;;;5013520;28;20045;-81
2023/09/09 11:17:44;;;;;;;0.20;0.20;;;27.40;99.90;;;;;;5030515;28;20547;-81
2023/09/09 11:20:12;;;;;;;0.20;0.20;;;27.60;99.90;;;;;;5032688;28;20038;-81
2023/09/09 11:22:42;;;;;;;0.47;0.47;;;27.60;99.90;;;;;;5030398;28;20412;-81
2023/09/09 11:25:08;;;;;;;0.20;0.20;;;27.70;99.90;;;;;;5024841;28;20045;-80
2023/09/09 11:27:34;;;;;;;0.30;0.30;;;27.80;99.90;;;;;;5023259;28;20141;-80
2023/09/09 11:30:00;;;;;;;0.20;0.20;;;27.90;99.90;;;;;;5030899;28;20436;-81
2023/09/09 11:32:27;;;;;;;0.20;0.20;;;28.00;99.90;;;;;;5028818;28;20518;-81
2023/09/09 11:34:54;;;;;;;0.20;0.20;;;28.10;99.90;;;;;;5031114;28;20777;-80
2023/09/09 11:37:20;;;;;;;0.20;0.20;;;28.20;99.90;;;;;;5028249;28;20045;-80
2023/09/09 11:39:46;;;;;;;0.13;0.13;;;28.30;99.90;;;;;;5031863;28;20056;-81
2023/09/09 11:42:12;;;;;;;0.20;0.20;;;28.30;99.90;;;;;;5029729;28;20401;-80
2023/09/09 11:44:41;;;;;;;0.20;0.20;;;28.40;99.90;;;;;;5026525;28;20316;-81
2023/09/09 11:47:08;;;;;;;0.25;0.25;;;28.50;99.90;;;;;;5030152;28;20088;-81
2023/09/09 11:49:33;;;;;;;0.20;0.20;;;28.60;99.90;;;;;;5026230;28;20044;-81
2023/09/09 11:52:00;;;;;;;0.20;0.20;;;28.80;99.90;;;;;;5015580;28;20045;-81
2023/09/09 11:54:27;;;;;;;0.20;0.20;;;28.90;99.90;;;;;;5027789;28;20389;-81
2023/09/09 11:57:09;;;;;;;0.20;0.20;;;29.10;99.90;;;;;;5017044;28;20056;-82
2023/09/09 11:59:45;;;;;;;0.20;0.20;;;29.20;99.90;;;;;;5023308;28;20088;-83
2023/09/09 12:02:22;;;;;;;0.10;0.10;;;29.40;99.90;;;;;;5024384;28;20041;-82
2023/09/09 12:04:59;;;;;;;0.20;0.20;;;29.60;99.90;;;;;;5021145;28;20512;-81
2023/09/09 12:07:33;;;;;;;0.20;0.20;;;29.70;99.90;;;;;;5008842;28;20037;-82
2023/09/09 12:10:01;;;;;;;0.20;0.20;;;29.90;99.90;;;;;;5011358;28;20046;-82
2023/09/09 12:12:27;;;;;;;0.20;0.20;;;30.00;99.90;;;;;;5012885;28;20038;-82
2023/09/09 12:14:55;;;;;;;0.20;0.20;;;30.20;99.90;;;;;;5020828;28;20041;-82
2023/09/09 12:17:21;;;;;;;0.30;0.30;;;30.30;99.90;;;;;;5018436;28;20171;-84
2023/09/09 12:20:05;;;;;;;0.20;0.20;;;30.50;99.90;;;;;;5039804;28;20095;-82
2023/09/09 12:22:36;;;;;;;0.20;0.20;;;30.60;99.90;;;;;;5012767;28;20608;-79
2023/09/09 12:25:04;;;;;;;0.30;0.30;;;30.70;99.90;;;;;;5016475;28;20504;-81
2023/09/09 12:27:43;;;;;;;0.20;0.20;;;30.90;99.90;;;;;;5017748;28;20312;-82
2023/09/09 12:30:34;;;;;;;0.20;0.20;;;31.00;99.90;;;;;;5022698;28;20113;-78
2023/09/09 12:33:18;;;;;;;0.20;0.20;;;31.00;99.90;;;;;;5013733;28;20065;-86
2023/09/09 12:35:51;;;;;;;0.20;0.20;;;31.10;99.90;;;;;;5019977;28;20129;-81
2023/09/09 12:38:18;;;;;;;0.20;0.20;;;31.20;99.90;;;;;;5015180;28;20068;-81
2023/09/09 12:40:49;;;;;;;0.20;0.20;;;31.20;99.90;;;;;;5011067;28;20167;-81
2023/09/09 12:43:25;;;;;;;0.20;0.20;;;31.20;99.50;;;;;;5015465;28;20060;-80
2023/09/09 12:46:01;;;;;;;0.20;0.20;;;31.30;99.40;;;;;;5014801;28;20057;-76
2023/09/09 12:48:27;;;;;;;0.20;0.20;;;31.30;99.30;;;;;;5020776;28;20257;-79
2023/09/09 12:50:52;;;;;;;0.20;0.20;;;31.40;99.40;;;;;;5021283;28;20489;-82